createdAt,value
2022-11-16T00:01:05.495Z,90.20
2022-11-16T00:03:33.048Z,90.20
2022-11-16T00:06:01.320Z,90.20
2022-11-16T00:08:34.897Z,90.40
2022-11-16T00:11:06.047Z,90.50
2022-11-16T00:13:33.842Z,90.70
2022-11-16T00:16:00.672Z,90.60
2022-11-16T00:18:27.771Z,90.30
2022-11-16T00:20:54.812Z,90.20
2022-11-16T00:23:21.594Z,89.80
2022-11-16T00:25:48.663Z,89.60
2022-11-16T00:28:15.765Z,89.30
2022-11-16T00:30:42.948Z,89.20
2022-11-16T00:33:14.521Z,89.20
2022-11-16T00:35:41.277Z,89.30
2022-11-16T00:38:08.139Z,89.60
2022-11-16T00:40:34.726Z,89.80
2022-11-16T00:43:01.447Z,90.00
2022-11-16T00:45:28.101Z,90.20
2022-11-16T00:48:00.167Z,90.60
2022-11-16T00:50:27.250Z,91.00
2022-11-16T00:52:54.370Z,91.10
2022-11-16T00:55:21.061Z,91.10
2022-11-16T00:57:47.779Z,91.10
2022-11-16T01:00:15.013Z,91.30
2022-11-16T01:02:41.728Z,91.60
2022-11-16T01:05:09.892Z,92.00
2022-11-16T01:07:38.630Z,92.30
2022-11-16T01:10:08.006Z,92.50
2022-11-16T01:12:35.147Z,93.20
2022-11-16T01:15:01.782Z,93.30
2022-11-16T01:17:28.541Z,93.10
2022-11-16T01:19:55.340Z,93.50
2022-11-16T01:22:21.966Z,93.50
2022-11-16T01:24:48.613Z,93.90
2022-11-16T01:27:15.385Z,93.70
2022-11-16T01:29:42.140Z,95.00
2022-11-16T01:32:08.877Z,94.50
2022-11-16T01:34:35.798Z,94.50
2022-11-16T01:37:02.521Z,94.70
2022-11-16T01:39:29.475Z,94.80
2022-11-16T01:41:56.200Z,94.80
2022-11-16T01:44:32.032Z,95.00
2022-11-16T01:47:12.011Z,95.20
2022-11-16T01:49:42.973Z,95.60
2022-11-16T01:52:14.437Z,96.50
2022-11-16T01:54:45.231Z,97.00
2022-11-16T01:57:20.153Z,97.20
2022-11-16T01:59:49.359Z,97.10
2022-11-16T02:02:16.130Z,97.20
2022-11-16T02:04:44.234Z,97.30
2022-11-16T02:08:07.846Z,97.40
2022-11-16T02:10:54.704Z,97.40
2022-11-16T02:13:27.402Z,97.50
2022-11-16T02:16:06.549Z,97.70
2022-11-16T02:18:37.837Z,97.80
2022-11-16T02:21:23.303Z,97.80
2022-11-16T02:24:20.147Z,98.20
2022-11-16T02:27:14.372Z,98.50
2022-11-16T02:29:52.030Z,98.50
2022-11-16T02:32:40.043Z,98.60
2022-11-16T02:35:28.383Z,98.80
2022-11-16T02:38:01.782Z,99.00
2022-11-16T02:40:31.773Z,99.00
2022-11-16T02:43:04.319Z,99.30
2022-11-16T02:45:34.199Z,99.40
2022-11-16T02:48:08.105Z,99.50
2022-11-16T02:50:36.422Z,99.90
2022-11-16T02:53:03.797Z,99.90
2022-11-16T02:55:34.026Z,99.90
2022-11-16T02:58:03.811Z,99.90
2022-11-16T03:00:59.342Z,99.90
2022-11-16T03:03:52.577Z,99.90
2022-11-16T03:06:28.543Z,99.90
2022-11-16T03:09:01.830Z,99.90
2022-11-16T03:11:48.680Z,99.90
2022-11-16T03:14:20.488Z,99.90
2022-11-16T03:16:52.710Z,99.90
2022-11-16T03:19:28.726Z,99.90
2022-11-16T03:22:00.393Z,99.90
2022-11-16T03:24:27.026Z,99.90
2022-11-16T03:27:09.743Z,99.90
2022-11-16T03:29:55.263Z,99.90
2022-11-16T03:32:30.105Z,99.90
2022-11-16T03:35:02.327Z,99.90
2022-11-16T03:37:30.080Z,99.90
2022-11-16T03:39:58.031Z,99.90
2022-11-16T03:42:26.935Z,99.90
2022-11-16T03:44:54.830Z,99.90
2022-11-16T03:47:21.487Z,99.90
2022-11-16T03:49:48.233Z,99.90
2022-11-16T03:52:16.366Z,99.90
2022-11-16T03:54:43.071Z,99.90
2022-11-16T03:57:15.392Z,99.90
2022-11-16T03:59:43.295Z,99.90
2022-11-16T04:02:10.407Z,99.90
2022-11-16T04:04:55.401Z,99.90
2022-11-16T04:07:40.626Z,99.90
2022-11-16T04:10:26.027Z,99.90
2022-11-16T04:13:11.541Z,99.90
2022-11-16T04:15:57.015Z,99.90
2022-11-16T04:18:42.457Z,99.90
2022-11-16T04:21:41.633Z,99.90
2022-11-16T04:24:19.186Z,99.90
2022-11-16T04:27:08.980Z,99.90
2022-11-16T04:29:36.256Z,99.90
2022-11-16T04:32:21.420Z,99.90
2022-11-16T04:35:06.839Z,99.90
2022-11-16T04:37:48.839Z,99.90
2022-11-16T04:40:17.032Z,99.90
2022-11-16T04:42:43.727Z,99.90
2022-11-16T04:45:29.256Z,99.90
2022-11-16T04:47:56.019Z,99.90
2022-11-16T04:50:22.677Z,99.90
2022-11-16T04:52:49.291Z,99.90
2022-11-16T04:55:15.939Z,99.90
2022-11-16T04:57:42.555Z,99.90
2022-11-16T05:00:09.965Z,99.90
2022-11-16T05:02:36.600Z,99.90
2022-11-16T05:05:04.102Z,99.90
2022-11-16T05:07:30.763Z,99.90
2022-11-16T05:09:57.431Z,99.90
2022-11-16T05:12:25.884Z,99.90
2022-11-16T05:14:52.622Z,99.90
2022-11-16T05:17:19.766Z,99.90
2022-11-16T05:20:05.052Z,99.90
2022-11-16T05:22:32.062Z,99.90
2022-11-16T05:24:58.793Z,99.90
2022-11-16T05:27:26.957Z,99.90
2022-11-16T05:29:54.262Z,99.90
2022-11-16T05:32:21.913Z,99.90
2022-11-16T05:34:48.748Z,99.90
2022-11-16T05:37:16.070Z,99.90
2022-11-16T05:39:42.809Z,99.90
2022-11-16T05:42:09.636Z,99.90
2022-11-16T05:44:36.288Z,99.90
2022-11-16T05:47:03.064Z,99.90
2022-11-16T05:49:29.673Z,99.90
2022-11-16T05:51:56.366Z,99.90
2022-11-16T05:54:25.768Z,99.90
2022-11-16T05:56:53.436Z,99.90
2022-11-16T05:59:21.569Z,99.90
2022-11-16T06:01:48.698Z,99.90
2022-11-16T06:04:15.427Z,99.90
2022-11-16T06:06:42.142Z,99.90
2022-11-16T06:09:10.413Z,99.90
2022-11-16T06:11:38.308Z,99.90
2022-11-16T06:14:05.716Z,99.90
2022-11-16T06:16:32.735Z,99.90
2022-11-16T06:18:59.957Z,99.90
2022-11-16T06:21:26.571Z,99.90
2022-11-16T06:23:53.541Z,99.90
2022-11-16T06:26:20.161Z,99.90
2022-11-16T06:28:46.825Z,99.90
2022-11-16T06:31:13.444Z,99.90
2022-11-16T06:33:40.036Z,99.90
2022-11-16T06:36:07.071Z,99.90
2022-11-16T06:38:34.121Z,99.90
2022-11-16T06:41:01.535Z,99.90
2022-11-16T06:43:28.163Z,99.90
2022-11-16T06:45:57.665Z,99.90
2022-11-16T06:48:24.911Z,99.90
2022-11-16T06:50:52.606Z,99.90
2022-11-16T06:53:22.459Z,99.90
2022-11-16T06:55:52.673Z,99.90
2022-11-16T06:58:19.302Z,99.90
2022-11-16T07:00:45.912Z,99.90
2022-11-16T07:03:12.540Z,99.90
2022-11-16T07:05:41.029Z,99.90
2022-11-16T07:08:08.484Z,99.90
2022-11-16T07:10:35.634Z,99.90
2022-11-16T07:13:03.570Z,99.90
2022-11-16T07:15:31.754Z,99.90
2022-11-16T07:18:03.815Z,99.90
2022-11-16T07:20:31.075Z,99.90
2022-11-16T07:23:00.808Z,99.90
2022-11-16T07:25:27.528Z,99.90
2022-11-16T07:27:54.153Z,99.90
2022-11-16T07:30:21.046Z,99.90
2022-11-16T07:32:49.198Z,99.90
2022-11-16T07:35:15.899Z,99.90
2022-11-16T07:37:43.041Z,99.90
2022-11-16T07:40:10.118Z,99.90
2022-11-16T07:42:37.079Z,99.90
2022-11-16T07:45:03.987Z,99.90
2022-11-16T07:47:35.890Z,99.90
2022-11-16T07:50:02.646Z,99.90
2022-11-16T07:52:29.357Z,99.90
2022-11-16T07:54:55.941Z,99.90
2022-11-16T07:57:22.547Z,99.90
2022-11-16T07:59:49.103Z,99.90
2022-11-16T08:02:15.724Z,99.90
2022-11-16T08:04:42.379Z,99.90
2022-11-16T08:07:09.144Z,99.90
2022-11-16T08:09:38.127Z,99.90
2022-11-16T08:12:04.910Z,99.90
2022-11-16T08:14:31.501Z,99.90
2022-11-16T08:16:58.080Z,99.90
2022-11-16T08:19:24.689Z,99.90
2022-11-16T08:21:51.306Z,99.90
2022-11-16T08:24:18.407Z,99.90
2022-11-16T08:26:45.242Z,99.90
2022-11-16T08:29:12.402Z,99.90
2022-11-16T08:31:39.591Z,99.90
2022-11-16T08:34:06.754Z,99.90
2022-11-16T08:36:36.940Z,99.90
2022-11-16T08:39:04.372Z,99.90
2022-11-16T08:41:31.317Z,99.90
2022-11-16T08:43:59.424Z,99.90
2022-11-16T08:46:26.131Z,99.90
2022-11-16T08:48:58.769Z,99.90
2022-11-16T08:51:26.164Z,99.90
2022-11-16T08:53:59.440Z,99.90
2022-11-16T08:56:28.298Z,99.90
2022-11-16T08:58:58.431Z,99.90
2022-11-16T09:01:28.132Z,99.90
2022-11-16T09:03:55.411Z,99.90
2022-11-16T09:06:23.996Z,99.90
2022-11-16T09:08:50.798Z,99.90
2022-11-16T09:11:21.433Z,99.90
2022-11-16T09:13:50.001Z,99.90
2022-11-16T09:16:17.786Z,99.90
2022-11-16T09:18:47.035Z,99.90
2022-11-16T09:21:21.922Z,99.90
2022-11-16T09:23:49.423Z,99.90
2022-11-16T09:26:20.459Z,99.90
2022-11-16T09:28:47.955Z,99.90
2022-11-16T09:31:17.644Z,99.90
2022-11-16T09:33:48.699Z,99.90
2022-11-16T09:36:15.782Z,99.90
2022-11-16T09:41:44.361Z,99.90
2022-11-16T09:44:32.986Z,99.90
2022-11-16T09:47:00.991Z,99.90
2022-11-16T09:49:41.289Z,99.90
2022-11-16T09:52:20.834Z,99.90
2022-11-16T09:54:48.685Z,99.90
2022-11-16T09:57:22.063Z,99.90
2022-11-16T09:59:52.108Z,99.90
2022-11-16T10:02:22.294Z,99.90
2022-11-16T10:05:16.635Z,99.90
2022-11-16T10:07:50.110Z,99.90
2022-11-16T10:10:36.642Z,99.90
2022-11-16T10:13:18.057Z,99.90
2022-11-16T10:15:47.585Z,99.90
2022-11-16T10:18:25.453Z,99.90
2022-11-16T10:21:03.575Z,99.90
2022-11-16T10:23:39.184Z,99.90
2022-11-16T10:26:15.589Z,99.90
2022-11-16T10:29:10.192Z,99.90
2022-11-16T10:31:51.468Z,99.90
2022-11-16T10:34:24.718Z,99.90
2022-11-16T10:36:54.172Z,99.90
2022-11-16T10:39:21.242Z,99.90
2022-11-16T10:41:51.089Z,99.90
2022-11-16T10:44:20.439Z,99.90
2022-11-16T10:47:02.998Z,99.90
2022-11-16T10:50:14.409Z,99.90
2022-11-16T10:52:41.067Z,99.90
2022-11-16T10:55:08.129Z,99.90
2022-11-16T10:57:58.045Z,99.90
2022-11-16T11:00:39.729Z,99.90
2022-11-16T11:03:07.265Z,99.90
2022-11-16T11:05:36.102Z,99.90
2022-11-16T11:08:16.919Z,99.90
2022-11-16T11:10:43.795Z,99.90
2022-11-16T11:13:10.371Z,99.90
2022-11-16T11:15:42.937Z,99.80
2022-11-16T11:18:34.638Z,99.50
2022-11-16T11:21:32.782Z,99.80
2022-11-16T11:24:16.401Z,99.90
2022-11-16T11:26:52.986Z,99.90
2022-11-16T11:29:25.231Z,99.90
2022-11-16T11:32:04.151Z,99.80
2022-11-16T11:34:34.855Z,99.50
2022-11-16T11:37:06.543Z,99.20
2022-11-16T11:39:37.255Z,98.60
2022-11-16T11:42:22.613Z,98.10
2022-11-16T11:45:03.547Z,98.60
2022-11-16T11:50:45.261Z,98.60
2022-11-16T11:53:20.656Z,99.30
2022-11-16T11:55:49.482Z,98.90
2022-11-16T11:58:18.323Z,98.90
2022-11-16T12:01:18.405Z,98.90
2022-11-16T12:03:58.606Z,99.00
2022-11-16T12:06:57.679Z,95.10
2022-11-16T12:09:44.477Z,94.30
2022-11-16T12:12:14.681Z,92.90
2022-11-16T12:14:56.642Z,90.00
2022-11-16T12:17:56.278Z,89.20
2022-11-16T12:20:42.817Z,86.20
2022-11-16T12:23:15.269Z,89.10
2022-11-16T12:25:50.214Z,89.40
2022-11-16T12:28:51.248Z,88.40
2022-11-16T12:31:30.070Z,87.20
2022-11-16T12:34:16.060Z,83.80
2022-11-16T12:36:46.115Z,83.60
2022-11-16T12:39:19.256Z,84.10
2022-11-16T12:42:23.500Z,82.90
2022-11-16T12:45:10.187Z,82.10
2022-11-16T12:48:10.638Z,83.60
2022-11-16T12:51:00.476Z,86.70
2022-11-16T12:53:38.247Z,88.10
2022-11-16T12:56:08.074Z,87.10
2022-11-16T12:58:56.862Z,87.40
2022-11-16T13:02:01.801Z,86.40
2022-11-16T13:04:41.074Z,87.20
2022-11-16T13:07:28.140Z,81.30
2022-11-16T13:10:05.389Z,78.80
2022-11-16T13:12:34.253Z,80.10
2022-11-16T13:15:05.160Z,81.00
2022-11-16T13:17:37.140Z,81.00
2022-11-16T13:20:29.886Z,82.10
2022-11-16T13:23:02.736Z,82.60
2022-11-16T13:25:50.208Z,82.90
2022-11-16T13:28:30.643Z,81.90
2022-11-16T13:31:15.744Z,75.30
2022-11-16T13:34:00.308Z,74.90
2022-11-16T13:36:43.678Z,72.90
2022-11-16T13:39:18.700Z,72.20
2022-11-16T13:41:51.599Z,73.00
2022-11-16T13:44:23.470Z,71.80
2022-11-16T13:47:06.694Z,71.10
2022-11-16T13:49:34.443Z,69.80
2022-11-16T13:52:22.731Z,69.20
2022-11-16T13:54:54.737Z,71.70
2022-11-16T13:57:32.283Z,72.90
2022-11-16T14:00:02.075Z,73.20
2022-11-16T14:02:38.554Z,73.40
2022-11-16T14:05:16.856Z,73.90
2022-11-16T14:07:50.451Z,73.70
2022-11-16T14:10:36.902Z,74.80
2022-11-16T14:13:05.668Z,76.50
2022-11-16T14:15:37.982Z,75.60
2022-11-16T14:18:08.815Z,75.40
2022-11-16T14:20:58.760Z,75.30
2022-11-16T14:23:44.464Z,74.70
2022-11-16T14:26:37.678Z,74.90
2022-11-16T14:29:04.436Z,75.90
2022-11-16T14:31:47.104Z,76.70
2022-11-16T14:34:29.793Z,77.90
2022-11-16T14:36:58.719Z,78.60
2022-11-16T14:39:39.967Z,79.60
2022-11-16T14:42:43.016Z,80.30
2022-11-16T14:45:29.443Z,81.70
2022-11-16T14:48:06.123Z,82.40
2022-11-16T14:50:40.692Z,82.80
2022-11-16T14:53:13.369Z,83.30
2022-11-16T14:55:43.321Z,83.90
2022-11-16T14:58:17.864Z,84.20
2022-11-16T15:01:12.772Z,84.50
2022-11-16T15:03:53.833Z,84.80
2022-11-16T15:06:21.289Z,85.00
2022-11-16T15:09:13.574Z,85.10
2022-11-16T15:12:01.400Z,85.50
2022-11-16T15:14:31.723Z,86.20
2022-11-16T15:17:00.195Z,87.20
2022-11-16T15:19:30.974Z,86.50
2022-11-16T15:22:00.670Z,87.10
2022-11-16T15:24:32.880Z,87.50
2022-11-16T15:27:08.653Z,87.60
2022-11-16T15:29:36.093Z,87.60
2022-11-16T15:32:02.836Z,87.80
2022-11-16T15:34:31.828Z,88.40
2022-11-16T15:36:58.424Z,88.70
2022-11-16T15:39:41.122Z,88.80
2022-11-16T15:42:14.506Z,89.20
2022-11-16T15:44:42.245Z,89.70
2022-11-16T15:47:12.774Z,90.00
2022-11-16T15:49:42.394Z,90.30
2022-11-16T15:52:10.064Z,90.60
2022-11-16T15:55:02.781Z,90.70
2022-11-16T15:57:29.502Z,91.10
2022-11-16T15:59:57.365Z,91.50
2022-11-16T16:02:27.391Z,91.80
2022-11-16T16:04:54.066Z,92.20
2022-11-16T16:07:40.020Z,92.50
2022-11-16T16:10:27.059Z,92.60
2022-11-16T16:12:56.548Z,92.80
2022-11-16T16:15:30.046Z,92.90
2022-11-16T16:17:58.683Z,93.10
2022-11-16T16:20:31.265Z,93.30
2022-11-16T16:23:09.833Z,93.30
2022-11-16T16:25:36.940Z,93.70
2022-11-16T16:28:04.016Z,93.90
2022-11-16T16:30:33.053Z,94.20
2022-11-16T16:32:59.802Z,94.40
2022-11-16T16:35:26.721Z,94.40
2022-11-16T16:37:58.827Z,94.60
2022-11-16T16:40:26.265Z,95.40
2022-11-16T16:42:54.726Z,97.60
2022-11-16T16:45:30.899Z,98.20
2022-11-16T16:47:57.495Z,97.80
2022-11-16T16:50:24.153Z,98.20
2022-11-16T16:52:50.741Z,98.50
2022-11-16T16:55:17.319Z,98.60
2022-11-16T16:57:43.916Z,98.60
2022-11-16T17:00:11.433Z,98.30
2022-11-16T17:02:38.549Z,98.10
2022-11-16T17:05:05.620Z,97.90
2022-11-16T17:07:32.230Z,97.70
2022-11-16T17:09:58.890Z,97.60
2022-11-16T17:12:25.487Z,97.70
2022-11-16T17:15:04.977Z,97.40
2022-11-16T17:17:35.379Z,97.80
2022-11-16T17:20:02.026Z,97.90
2022-11-16T17:22:28.654Z,97.90
2022-11-16T17:24:55.601Z,97.90
2022-11-16T17:27:22.223Z,97.90
2022-11-16T17:29:48.866Z,98.50
2022-11-16T17:32:15.657Z,97.80
2022-11-16T17:34:42.331Z,97.80
2022-11-16T17:37:09.015Z,97.70
2022-11-16T17:39:35.710Z,97.90
2022-11-16T17:42:02.373Z,97.80
2022-11-16T17:44:29.124Z,97.80
2022-11-16T17:46:55.802Z,97.80
2022-11-16T17:49:22.401Z,97.70
2022-11-16T17:51:49.082Z,97.70
2022-11-16T17:54:15.661Z,97.50
2022-11-16T17:56:42.222Z,97.60
2022-11-16T17:59:08.841Z,97.60
2022-11-16T18:01:35.536Z,97.60
2022-11-16T18:04:02.496Z,97.50
2022-11-16T18:06:29.428Z,97.70
2022-11-16T18:08:57.542Z,97.80
2022-11-16T18:11:26.461Z,98.60
2022-11-16T18:14:00.387Z,97.80
2022-11-16T18:16:32.527Z,97.90
2022-11-16T18:19:07.018Z,97.90
2022-11-16T18:21:44.211Z,97.70
2022-11-16T18:24:11.676Z,97.80
2022-11-16T18:26:40.657Z,97.90
2022-11-16T18:29:12.034Z,98.10
2022-11-16T18:31:41.907Z,98.20
2022-11-16T18:34:09.169Z,98.60
2022-11-16T18:36:35.968Z,99.20
2022-11-16T18:39:02.567Z,99.30
2022-11-16T18:41:29.686Z,99.10
2022-11-16T18:44:01.336Z,98.90
2022-11-16T18:46:32.761Z,98.80
2022-11-16T18:49:00.013Z,98.70
2022-11-16T18:51:27.798Z,98.70
2022-11-16T18:53:55.882Z,98.70
2022-11-16T18:56:24.008Z,98.70
2022-11-16T18:58:52.433Z,98.60
2022-11-16T19:01:22.292Z,98.60
2022-11-16T19:03:51.673Z,98.60
2022-11-16T19:06:18.544Z,98.60
2022-11-16T19:08:50.494Z,98.70
2022-11-16T19:11:20.759Z,98.60
2022-11-16T19:14:03.732Z,98.40
2022-11-16T19:16:31.101Z,98.50
2022-11-16T19:18:57.700Z,98.50
2022-11-16T19:21:24.807Z,98.50
2022-11-16T19:23:53.005Z,98.50
2022-11-16T19:26:21.934Z,98.60
2022-11-16T19:28:50.073Z,98.60
2022-11-16T19:31:25.354Z,98.70
2022-11-16T19:34:02.601Z,98.80
2022-11-16T19:36:30.543Z,98.90
2022-11-16T19:38:57.640Z,98.90
2022-11-16T19:41:25.250Z,99.00
2022-11-16T19:43:56.824Z,99.00
2022-11-16T19:46:24.715Z,98.90
2022-11-16T19:48:52.064Z,98.90
2022-11-16T19:51:28.936Z,98.90
2022-11-16T19:53:59.928Z,99.00
2022-11-16T19:56:26.836Z,99.10
2022-11-16T19:58:53.599Z,99.10
2022-11-16T20:01:25.070Z,99.00
2022-11-16T20:03:52.033Z,99.10
2022-11-16T20:06:18.602Z,99.20
2022-11-16T20:08:53.985Z,99.30
2022-11-16T20:11:26.846Z,99.40
2022-11-16T20:13:55.351Z,99.50
2022-11-16T20:16:32.796Z,99.60
2022-11-16T20:19:04.221Z,99.70
2022-11-16T20:21:44.446Z,99.80
2022-11-16T20:24:13.566Z,99.90
2022-11-16T20:26:46.491Z,99.90
2022-11-16T20:29:14.325Z,99.90
2022-11-16T20:31:42.912Z,99.90
2022-11-16T20:34:14.137Z,99.90
2022-11-16T20:36:43.555Z,99.90
2022-11-16T20:39:15.830Z,99.90
2022-11-16T20:41:43.911Z,99.90
2022-11-16T20:44:16.569Z,99.90
2022-11-16T20:46:44.964Z,99.90
2022-11-16T20:49:11.793Z,99.90
2022-11-16T20:51:38.490Z,99.90
2022-11-16T20:54:05.379Z,99.90
2022-11-16T20:56:32.291Z,99.90
2022-11-16T20:58:59.485Z,99.90
2022-11-16T21:01:33.439Z,99.90
2022-11-16T21:04:05.124Z,99.90
2022-11-16T21:06:32.805Z,99.90
2022-11-16T21:09:00.007Z,99.90
2022-11-16T21:11:29.106Z,99.90
2022-11-16T21:14:14.865Z,99.90
2022-11-16T21:16:41.487Z,99.90
2022-11-16T21:19:08.354Z,99.90
2022-11-16T21:21:35.340Z,99.90
2022-11-16T21:24:02.028Z,99.90
2022-11-16T21:26:31.148Z,99.90
2022-11-16T21:28:58.984Z,99.90
2022-11-16T21:31:27.854Z,99.90
2022-11-16T21:33:55.113Z,99.90
2022-11-16T21:36:23.951Z,99.90
2022-11-16T21:38:51.760Z,99.90
2022-11-16T21:41:20.786Z,99.90
2022-11-16T21:43:47.642Z,99.90
2022-11-16T21:46:21.334Z,99.90
2022-11-16T21:48:48.391Z,99.90
2022-11-16T21:51:20.211Z,99.90
2022-11-16T21:53:47.313Z,99.90
2022-11-16T21:56:19.602Z,99.90
2022-11-16T21:58:46.764Z,99.90
2022-11-16T22:01:15.988Z,99.90
2022-11-16T22:03:43.044Z,99.90
2022-11-16T22:06:32.117Z,99.90
2022-11-16T22:08:58.837Z,99.90
2022-11-16T22:11:25.930Z,99.90
2022-11-16T22:13:52.680Z,99.90
2022-11-16T22:16:20.986Z,99.90
2022-11-16T22:18:47.585Z,99.90
2022-11-16T22:21:14.262Z,99.90
2022-11-16T22:23:41.331Z,99.90
2022-11-16T22:26:11.237Z,99.90
2022-11-16T22:28:38.518Z,99.90
2022-11-16T22:31:06.744Z,99.90
2022-11-16T22:33:34.644Z,99.90
2022-11-16T22:36:01.812Z,99.90
2022-11-16T22:38:28.722Z,99.90
2022-11-16T22:40:57.151Z,99.90
2022-11-16T22:43:28.518Z,99.90
2022-11-16T22:46:01.795Z,99.90
2022-11-16T22:48:32.200Z,99.90
2022-11-16T22:51:25.616Z,99.90
2022-11-16T22:53:54.202Z,99.90
2022-11-16T22:56:21.070Z,99.90
2022-11-16T22:58:47.690Z,99.90
2022-11-16T23:01:14.462Z,99.90
2022-11-16T23:03:41.268Z,99.90
2022-11-16T23:06:08.316Z,99.90
2022-11-16T23:08:35.416Z,99.90
2022-11-16T23:11:32.333Z,99.90
2022-11-16T23:14:31.354Z,99.90
2022-11-16T23:16:57.982Z,99.90
2022-11-16T23:19:43.705Z,99.90
2022-11-16T23:22:34.844Z,99.90
2022-11-16T23:25:20.293Z,99.90
2022-11-16T23:27:58.790Z,99.90
2022-11-16T23:30:26.684Z,99.90
2022-11-16T23:32:53.678Z,99.90
2022-11-16T23:35:20.659Z,99.90
2022-11-16T23:37:55.782Z,99.90
2022-11-16T23:40:26.794Z,99.90
2022-11-16T23:43:12.951Z,99.90
2022-11-16T23:45:40.671Z,99.90
2022-11-16T23:48:08.941Z,99.90
2022-11-16T23:50:36.054Z,99.90
2022-11-16T23:53:03.522Z,99.90
2022-11-16T23:55:33.141Z,99.90
2022-11-16T23:58:00.088Z,99.90
